Laveen, Arizona
Current Conditions -  °F | °C
As of 11:51 PM on Saturday 25 Oct 2014 (Local Time) from KPHX Reporting Station
Clear Clear  
Wind Chill: 79°   Ceiling: Unl
Heat Index: 80°   Visibility: 10mi
Dew Point: 55°   Wind: 5mph
Humidity: 44%   Direction: 100°E
Pressure: 29.89"   Gusts: NA
Location:  33.36°N, 112.17°W
Report Text: KPHX 260651Z 10004KT 10SM CLR 26/13 A2989 RMK AO2 SLP105 T02610128 403560211
Loading
Personal Weather Stations






























Interactive Weather Map
Tropical Storm Tracking
New forecast layout! Learn more

10-Day Weather Forecast

Advertisements
Track Severe Weather on mobile